Terminal Aerodrome Forecast
Issued by NWS Spokane, WA

Home | Current Version | Previous Version | Text Only | Print | Product List | Glossary On
Versions: 1 2 3 4 5 6 7 8 9 10 11 12 13 14 15 16 17
000
FTUS46 KOTX 211136
TAFLWS
TAF
KLWS 211136Z 2112/2212 08003KT P6SM -RA SCT025 OVC050
     FM211700 22008KT P6SM VCSH BKN040 OVC060
     FM212100 27010G20KT P6SM -RA SCT030 OVC040
     FM220300 26009KT P6SM VCSH BKN050
     FM220800 24007KT P6SM BKN100=

USA.gov is the U.S. government's official web portal to all federal, state and local government web resources and services.